Rothwell, United Kingdom
Current Conditions -  °F | °C
As of 2:50 PM on Saturday 20 Dec 2014 (Local Time) from EGXT Reporting Station
Broken Clouds Broken Clouds  
Wind Chill: 39°   Ceiling: 3900
Heat Index: 46°   Visibility: 6mi
Dew Point: 39°   Wind: 20mph
Humidity: 76%   Direction: 280°W
Pressure: 30.27"   Gusts: NA
Location:  52.42°N, 0.8°W
Report Text: EGXT 201450Z AUTO 28017KT 9999 BKN039/// 08/04 Q1025
Loading
Personal Weather Stations






























Interactive Weather Map New forecast layout! Learn more

10-Day Weather Forecast

Advertisements
Track Severe Weather on mobile